Time;durP1;ratioP1;P1;durP2;ratioP2;P2;SDS_P1;SDS_P2;PMS_P1;PMS_P2;Temp;Humidity;BMP_temperature;BMP_pressure;BME280_temperature;BME280_humidity;BME280_pressure;Samples;Min_cycle;Max_cycle;Signal;HPM_P1;HPM_P2
2023/08/11 00:00:23;;;;;;;9.57;6.30;;;;;;;19.58;66.00;101907.06;4995258;28;20105;-67
2023/08/11 00:02:52;;;;;;;6.10;5.00;;;;;;;19.60;66.05;101912.41;5004015;28;20280;-67
2023/08/11 00:05:18;;;;;;;6.18;5.15;;;;;;;19.61;66.14;101908.47;5015132;28;20434;-66
2023/08/11 00:07:50;;;;;;;7.18;5.20;;;;;;;19.57;66.40;101918.59;5013759;28;20171;-67
2023/08/11 00:10:18;;;;;;;7.22;5.93;;;;;;;19.55;66.43;101918.06;5014883;28;20033;-67
2023/08/11 00:12:44;;;;;;;9.43;5.28;;;;;;;19.52;66.50;101904.56;5014463;28;20018;-67
2023/08/11 00:15:09;;;;;;;5.85;5.25;;;;;;;19.56;66.24;101912.13;5014271;28;20032;-67
2023/08/11 00:17:34;;;;;;;7.97;5.75;;;;;;;19.53;66.20;101906.22;5012103;28;20072;-67
2023/08/11 00:20:00;;;;;;;5.75;5.13;;;;;;;19.50;66.34;101910.47;5011572;28;20413;-67
2023/08/11 00:22:26;;;;;;;7.00;5.28;;;;;;;19.50;66.44;101906.81;5013659;28;20105;-67
2023/08/11 00:24:51;;;;;;;5.97;5.35;;;;;;;19.48;66.38;101904.28;5015050;28;20029;-67
2023/08/11 00:27:16;;;;;;;6.03;5.47;;;;;;;19.44;66.37;101894.72;5013567;28;20073;-67
2023/08/11 00:29:42;;;;;;;10.40;5.78;;;;;;;19.40;66.53;101909.66;5014352;28;20448;-68
2023/08/11 00:32:07;;;;;;;6.45;5.25;;;;;;;19.44;66.43;101907.97;5014539;28;20026;-67
2023/08/11 00:34:32;;;;;;;5.97;5.22;;;;;;;19.37;66.67;101905.44;5013834;28;20372;-67
2023/08/11 00:36:58;;;;;;;6.90;5.32;;;;;;;19.33;66.66;101910.81;5010186;28;20036;-67
2023/08/11 00:39:23;;;;;;;6.60;5.60;;;;;;;19.36;66.56;101906.59;5009635;28;20029;-67
2023/08/11 00:41:50;;;;;;;6.30;5.40;;;;;;;19.31;66.43;101904.63;5013971;28;20026;-67
2023/08/11 00:44:16;;;;;;;6.60;5.43;;;;;;;19.29;66.90;101903.22;5013829;28;20465;-67
2023/08/11 00:46:42;;;;;;;7.88;5.05;;;;;;;19.27;67.05;101905.50;5014355;28;20021;-67
2023/08/11 00:49:09;;;;;;;6.05;5.38;;;;;;;19.28;66.68;101888.31;5013637;28;20061;-67
2023/08/11 00:51:35;;;;;;;7.97;5.85;;;;;;;19.31;66.48;101886.91;5014070;28;20451;-67
2023/08/11 00:54:01;;;;;;;8.45;5.68;;;;;;;19.24;66.57;101890.00;5004853;28;20057;-67
2023/08/11 00:56:26;;;;;;;5.90;5.20;;;;;;;19.27;66.45;101886.63;5013280;28;20108;-67
2023/08/11 00:58:53;;;;;;;7.25;5.70;;;;;;;19.22;66.58;101872.59;5013806;28;20030;-67
2023/08/11 01:01:18;;;;;;;7.25;5.85;;;;;;;19.20;66.54;101877.63;5014264;28;20092;-67
2023/08/11 01:03:47;;;;;;;8.30;5.85;;;;;;;19.17;66.42;101877.38;5013062;28;20488;-67
2023/08/11 01:06:35;;;;;;;7.72;5.72;;;;;;;19.17;66.50;101878.22;5013512;28;20021;-68
2023/08/11 01:09:20;;;;;;;10.43;5.88;;;;;;;19.15;66.58;101868.38;5013703;28;20033;-67
2023/08/11 01:11:57;;;;;;;7.72;6.13;;;;;;;19.17;66.49;101866.94;5009378;28;20046;-67
2023/08/11 01:14:47;;;;;;;8.25;5.90;;;;;;;19.17;66.19;101869.75;5013426;28;20065;-67
2023/08/11 01:17:16;;;;;;;7.00;6.18;;;;;;;19.08;66.60;101869.50;5013049;28;20491;-67
2023/08/11 01:19:42;;;;;;;9.75;6.65;;;;;;;19.08;66.42;101866.69;5013613;28;20040;-67
2023/08/11 01:22:14;;;;;;;8.25;7.43;;;;;;;19.03;66.60;101863.06;5012294;28;20405;-67
2023/08/11 01:24:42;;;;;;;9.50;6.38;;;;;;;19.07;66.43;101861.38;5012724;28;20036;-68
2023/08/11 01:27:07;;;;;;;7.65;6.85;;;;;;;19.02;66.48;101858.56;5010142;28;20044;-67
2023/08/11 01:29:32;;;;;;;9.85;7.22;;;;;;;19.00;66.65;101869.25;5011200;28;20037;-68
2023/08/11 01:31:58;;;;;;;8.55;7.20;;;;;;;18.99;66.55;101859.97;5011700;28;20104;-67
2023/08/11 01:34:23;;;;;;;9.60;7.30;;;;;;;18.96;66.66;101863.38;5012189;28;20068;-67
2023/08/11 01:37:00;;;;;;;7.88;7.05;;;;;;;18.94;66.69;101853.50;5012081;28;20061;-67
2023/08/11 01:39:26;;;;;;;8.00;7.20;;;;;;;18.95;66.60;101858.88;5011665;28;20034;-67
2023/08/11 01:41:52;;;;;;;8.68;7.75;;;;;;;18.94;66.49;101865.59;5012734;28;20124;-67
2023/08/11 01:44:18;;;;;;;7.95;6.90;;;;;;;18.87;66.61;101859.44;5011545;28;20122;-67
2023/08/11 01:46:45;;;;;;;10.80;7.72;;;;;;;18.82;67.05;101865.06;5008234;28;20113;-67
2023/08/11 01:49:12;;;;;;;9.05;7.97;;;;;;;18.87;67.09;101862.28;5011902;28;20026;-67
2023/08/11 01:51:39;;;;;;;8.48;7.57;;;;;;;18.88;66.61;101859.16;5011144;28;20101;-67
2023/08/11 01:54:04;;;;;;;9.52;7.18;;;;;;;18.84;66.54;101858.03;5012359;28;20030;-67
2023/08/11 01:56:30;;;;;;;9.43;7.53;;;;;;;18.82;67.04;101860.31;5011900;28;20045;-67
2023/08/11 01:58:58;;;;;;;8.80;7.80;;;;;;;18.81;67.01;101858.59;5011000;28;20037;-67
2023/08/11 02:01:24;;;;;;;8.65;7.75;;;;;;;18.76;67.14;101844.56;5006709;28;20309;-67
2023/08/11 02:03:49;;;;;;;10.07;8.05;;;;;;;18.76;66.93;101847.38;5009969;28;20160;-67
2023/08/11 02:06:15;;;;;;;8.32;7.50;;;;;;;18.72;67.13;101846.25;5010769;28;20104;-67
2023/08/11 02:08:40;;;;;;;10.45;8.05;;;;;;;18.72;67.06;101843.44;5011602;28;20037;-67
2023/08/11 02:11:05;;;;;;;9.27;7.55;;;;;;;18.70;66.98;101840.06;5011989;28;20084;-67
2023/08/11 02:13:31;;;;;;;9.40;8.10;;;;;;;18.62;67.22;101832.16;5011614;28;20045;-67
2023/08/11 02:15:56;;;;;;;8.90;8.10;;;;;;;18.61;67.26;101838.94;5012156;28;20377;-67
2023/08/11 02:18:21;;;;;;;8.80;8.00;;;;;;;18.63;67.43;101834.72;5011920;28;20049;-67
2023/08/11 02:20:47;;;;;;;10.85;8.13;;;;;;;18.61;67.40;101836.13;5000333;28;20026;-67
2023/08/11 02:23:12;;;;;;;10.77;8.40;;;;;;;18.63;67.39;101839.50;5009578;28;20462;-67
2023/08/11 02:25:38;;;;;;;9.90;8.45;;;;;;;18.61;67.27;101828.50;5011793;28;20098;-67
2023/08/11 02:28:04;;;;;;;9.98;8.52;;;;;;;18.57;67.27;101832.19;5011104;28;20042;-66
2023/08/11 02:30:29;;;;;;;9.25;8.35;;;;;;;18.53;67.30;101847.94;5011606;28;20152;-67
2023/08/11 02:32:55;;;;;;;9.98;9.00;;;;;;;18.51;67.33;101848.22;5011961;28;20523;-66
2023/08/11 02:35:21;;;;;;;10.27;8.27;;;;;;;18.47;67.43;101847.09;5011145;28;20030;-67
2023/08/11 02:37:47;;;;;;;9.32;8.32;;;;;;;18.50;67.29;101845.69;5008567;28;20080;-66
2023/08/11 02:40:12;;;;;;;10.40;8.57;;;;;;;18.50;67.43;101848.50;5004956;28;20034;-66
2023/08/11 02:42:48;;;;;;;8.90;7.93;;;;;;;18.48;67.29;101850.75;5008860;28;20363;-67
2023/08/11 02:45:15;;;;;;;9.25;8.00;;;;;;;18.45;67.34;101854.97;5010324;28;20168;-67
2023/08/11 02:47:40;;;;;;;12.25;8.38;;;;;;;18.44;67.36;101844.03;5009237;28;20109;-66
2023/08/11 02:50:06;;;;;;;9.95;8.38;;;;;;;18.39;67.44;101848.50;5009280;28;20113;-66
2023/08/11 02:52:31;;;;;;;10.80;9.32;;;;;;;18.36;67.47;101849.06;5010769;28;20034;-67
2023/08/11 02:54:57;;;;;;;9.48;8.50;;;;;;;18.35;67.32;101850.22;5010159;28;20034;-67
2023/08/11 02:57:22;;;;;;;9.75;8.75;;;;;;;18.29;67.73;101854.13;5003417;28;20033;-67
2023/08/11 02:59:49;;;;;;;10.00;9.02;;;;;;;18.27;67.63;101847.94;5009761;28;20026;-67
2023/08/11 03:02:16;;;;;;;10.38;9.05;;;;;;;18.27;67.99;101850.75;5008570;28;20065;-67
2023/08/11 03:04:42;;;;;;;14.00;9.32;;;;;;;18.26;68.10;101849.06;5010880;28;20041;-67
2023/08/11 03:07:09;;;;;;;9.77;8.77;;;;;;;18.28;68.04;101851.59;5001633;28;20022;-67
2023/08/11 03:09:35;;;;;;;13.07;9.00;;;;;;;18.24;67.93;101845.69;5007931;28;20057;-67
2023/08/11 03:12:00;;;;;;;11.25;9.10;;;;;;;18.25;68.23;101840.91;5008890;28;20058;-67
2023/08/11 03:14:26;;;;;;;10.70;9.57;;;;;;;18.23;68.21;101844.00;5009774;28;20428;-67
2023/08/11 03:16:52;;;;;;;10.00;8.65;;;;;;;18.22;68.01;101841.47;5008572;28;20030;-67
2023/08/11 03:19:17;;;;;;;10.40;8.70;;;;;;;18.18;68.04;101832.75;5014147;28;20039;-67
2023/08/11 03:21:43;;;;;;;9.70;8.73;;;;;;;18.16;67.78;101832.22;5013130;28;20034;-67
2023/08/11 03:24:08;;;;;;;10.93;8.75;;;;;;;18.20;67.76;101838.97;5011883;28;20115;-67
2023/08/11 03:26:33;;;;;;;10.55;9.45;;;;;;;18.14;68.04;101840.06;5006454;28;20080;-67
2023/08/11 03:28:59;;;;;;;9.20;8.40;;;;;;;18.15;68.13;101838.94;5013365;28;20108;-67
2023/08/11 03:31:24;;;;;;;10.95;9.25;;;;;;;18.08;67.99;101846.81;5012910;28;20053;-67
2023/08/11 03:33:49;;;;;;;11.05;9.95;;;;;;;18.07;68.20;101839.50;5013566;28;20065;-67
2023/08/11 03:36:18;;;;;;;11.55;9.23;;;;;;;18.05;68.53;101834.16;5013800;28;20112;-68
2023/08/11 03:38:43;;;;;;;12.48;9.70;;;;;;;18.03;68.61;101835.56;5014627;28;20442;-67
2023/08/11 03:41:08;;;;;;;11.45;9.25;;;;;;;18.03;68.48;101842.00;5013820;28;20064;-67
2023/08/11 03:43:34;;;;;;;10.23;9.13;;;;;;;18.07;68.45;101840.34;5008652;28;20110;-67
2023/08/11 03:45:59;;;;;;;11.35;9.60;;;;;;;18.04;68.40;101831.66;5001450;28;20100;-66
2023/08/11 03:48:25;;;;;;;12.65;9.85;;;;;;;17.98;68.30;101827.13;5015824;28;20065;-67
2023/08/11 03:50:50;;;;;;;13.10;9.57;;;;;;;17.98;68.46;101827.97;5011801;28;20058;-66
2023/08/11 03:53:16;;;;;;;10.85;9.65;;;;;;;18.01;68.79;101827.41;5012279;28;20401;-68
2023/08/11 03:55:43;;;;;;;14.65;9.50;;;;;;;17.97;68.42;101825.47;5013694;28;20521;-67
2023/08/11 03:58:08;;;;;;;11.18;9.93;;;;;;;17.94;68.45;101829.66;5008799;28;20025;-67
2023/08/11 04:00:35;;;;;;;13.73;10.00;;;;;;;17.92;68.50;101831.91;4996763;28;20033;-67
2023/08/11 04:03:01;;;;;;;10.48;9.48;;;;;;;17.87;68.65;101824.31;5012533;28;20021;-67
2023/08/11 04:05:27;;;;;;;12.75;10.02;;;;;;;17.88;68.49;101830.75;5014928;28;20034;-67
2023/08/11 04:07:53;;;;;;;12.05;10.85;;;;;;;17.87;68.51;101829.91;5015582;28;20030;-67
2023/08/11 04:10:18;;;;;;;14.30;10.23;;;;;;;17.87;68.61;101829.91;5015233;28;20465;-67
2023/08/11 04:12:44;;;;;;;11.70;10.60;;;;;;;17.85;68.47;101832.19;5014602;28;20112;-67
2023/08/11 04:15:10;;;;;;;14.25;10.48;;;;;;;17.89;68.58;101830.50;5015064;28;20092;-67
2023/08/11 04:17:36;;;;;;;13.68;10.00;;;;;;;17.86;68.49;101831.06;5012000;28;20117;-67
2023/08/11 04:20:11;;;;;;;11.63;10.40;;;;;;;17.81;68.61;101831.06;5013553;28;20384;-67
2023/08/11 04:22:36;;;;;;;11.18;10.07;;;;;;;17.81;68.71;101828.25;5015343;28;20033;-67
2023/08/11 04:25:02;;;;;;;13.05;9.93;;;;;;;17.76;68.80;101831.00;5015085;28;20041;-67
2023/08/11 04:27:27;;;;;;;11.93;10.57;;;;;;;17.74;68.75;101830.44;5014217;28;20128;-67
2023/08/11 04:29:52;;;;;;;13.23;10.25;;;;;;;17.72;69.27;101834.63;5014767;28;20055;-67
2023/08/11 04:32:18;;;;;;;11.80;10.45;;;;;;;17.73;69.18;101830.72;5014866;28;20092;-67
2023/08/11 04:34:43;;;;;;;11.13;10.05;;;;;;;17.75;69.04;101828.50;5008409;28;20077;-67
2023/08/11 04:37:10;;;;;;;12.32;10.75;;;;;;;17.70;69.27;101834.91;5012325;28;20018;-66
2023/08/11 04:39:36;;;;;;;11.80;10.48;;;;;;;17.70;69.16;101829.31;5014897;28;20413;-66
2023/08/11 04:42:02;;;;;;;16.60;10.85;;;;;;;17.67;69.14;101825.06;5014038;28;20036;-67
2023/08/11 04:44:27;;;;;;;12.05;10.00;;;;;;;17.69;69.37;101827.63;5014630;28;20109;-67
2023/08/11 04:46:52;;;;;;;13.30;10.55;;;;;;;17.70;69.28;101820.88;5014635;28;20096;-66
2023/08/11 04:49:18;;;;;;;12.23;10.57;;;;;;;17.66;69.61;101828.16;5013965;28;20030;-66
2023/08/11 04:51:43;;;;;;;12.32;10.63;;;;;;;17.67;69.60;101827.03;5010145;28;20061;-66
2023/08/11 04:54:11;;;;;;;13.45;10.88;;;;;;;17.73;69.54;101819.50;5012618;28;20452;-67
2023/08/11 04:56:36;;;;;;;13.32;11.02;;;;;;;17.70;69.72;101811.63;5012689;28;20030;-67
2023/08/11 04:59:02;;;;;;;14.50;11.02;;;;;;;17.73;69.67;101808.25;5013217;28;20106;-67
2023/08/11 05:01:27;;;;;;;13.95;11.80;;;;;;;17.72;69.75;101807.38;5010320;28;20096;-67
2023/08/11 05:03:53;;;;;;;13.73;12.32;;;;;;;17.68;70.15;101803.44;5013454;28;20026;-67
2023/08/11 05:06:18;;;;;;;14.75;11.30;;;;;;;17.74;69.85;101802.34;5014188;28;20034;-67
2023/08/11 05:08:45;;;;;;;13.32;11.13;;;;;;;17.77;69.92;101801.84;5013561;28;20030;-67
2023/08/11 05:11:11;;;;;;;15.88;12.70;;;;;;;17.73;70.24;101797.88;5013946;28;20030;-67
2023/08/11 05:13:36;;;;;;;18.20;12.25;;;;;;;17.74;70.21;101799.53;5014436;28;20041;-67
2023/08/11 05:16:02;;;;;;;17.33;12.00;;;;;;;17.81;69.84;101793.69;5012980;28;20128;-67
2023/08/11 05:18:27;;;;;;;16.10;12.25;;;;;;;17.82;69.61;101799.03;5010028;28;20046;-67
2023/08/11 05:20:52;;;;;;;14.52;12.30;;;;;;;17.82;69.46;101801.84;5013858;28;20528;-68
2023/08/11 05:23:18;;;;;;;17.75;11.60;;;;;;;17.88;69.58;101805.47;5013290;28;20092;-67
2023/08/11 05:25:44;;;;;;;16.95;11.70;;;;;;;17.87;69.58;101799.03;5014179;28;20037;-67
2023/08/11 05:28:09;;;;;;;16.88;11.27;;;;;;;17.90;69.56;101806.91;5013672;28;20046;-67
2023/08/11 05:30:34;;;;;;;14.15;11.10;;;;;;;17.97;69.36;101800.19;5013025;28;20100;-67
2023/08/11 05:33:00;;;;;;;15.18;11.05;;;;;;;18.01;69.29;101792.88;5013562;28;20101;-67
2023/08/11 05:35:26;;;;;;;14.93;11.77;;;;;;;18.02;69.29;101791.75;5009464;28;20430;-67
2023/08/11 05:37:51;;;;;;;16.23;11.70;;;;;;;18.00;69.29;101789.22;5012884;28;20026;-66
2023/08/11 05:40:17;;;;;;;13.45;11.15;;;;;;;18.04;69.77;101795.13;5013050;28;20030;-67
2023/08/11 05:42:43;;;;;;;13.60;10.63;;;;;;;18.05;69.37;101796.81;5013496;28;20033;-67
2023/08/11 05:45:09;;;;;;;13.90;10.70;;;;;;;18.07;69.19;101795.38;5012546;28;20048;-67
2023/08/11 05:47:34;;;;;;;17.30;11.40;;;;;;;18.12;69.11;101803.00;5013482;28;20500;-67
2023/08/11 05:49:59;;;;;;;14.50;10.70;;;;;;;18.11;69.19;101799.31;5010303;28;20038;-68
2023/08/11 05:52:25;;;;;;;14.27;10.63;;;;;;;18.15;69.49;101796.78;5009632;28;20097;-66
2023/08/11 05:54:50;;;;;;;16.92;10.60;;;;;;;18.17;69.27;101797.38;5013234;28;20029;-66
2023/08/11 05:57:15;;;;;;;13.98;10.50;;;;;;;18.18;69.26;101801.00;5013186;28;20033;-66
2023/08/11 05:59:40;;;;;;;18.27;11.48;;;;;;;18.20;69.58;101794.00;5012450;28;20026;-67
2023/08/11 06:02:06;;;;;;;13.18;10.50;;;;;;;18.22;69.59;101799.31;5013065;28;20034;-67
2023/08/11 06:04:31;;;;;;;13.45;10.52;;;;;;;18.25;69.50;101790.34;5013223;28;20496;-66
2023/08/11 06:06:57;;;;;;;13.95;11.00;;;;;;;18.27;69.67;101793.69;5012217;28;20065;-67
2023/08/11 06:09:22;;;;;;;16.02;10.40;;;;;;;18.28;70.37;101796.25;5009247;28;20101;-66
2023/08/11 06:11:48;;;;;;;15.63;9.88;;;;;;;18.36;69.53;101803.25;5012939;28;20041;-66
2023/08/11 06:14:13;;;;;;;13.50;9.45;;;;;;;18.40;69.31;101790.31;5011646;28;20029;-66
2023/08/11 06:16:38;;;;;;;11.23;9.23;;;;;;;18.50;69.05;101797.88;5010711;28;20115;-66
2023/08/11 06:19:04;;;;;;;10.88;8.90;;;;;;;18.57;69.52;101795.63;5012241;28;20041;-67
2023/08/11 06:21:29;;;;;;;15.70;9.13;;;;;;;18.69;69.41;101796.16;5010491;28;20034;-67
2023/08/11 06:23:54;;;;;;;15.80;8.98;;;;;;;18.76;68.52;101802.38;5012238;28;20030;-67
2023/08/11 06:26:20;;;;;;;12.50;8.75;;;;;;;18.86;68.57;101802.34;5004847;28;20426;-67
2023/08/11 06:28:45;;;;;;;12.93;8.50;;;;;;;18.94;68.14;101797.25;5005402;28;20421;-66
2023/08/11 06:31:10;;;;;;;10.95;7.78;;;;;;;19.01;68.04;101789.34;5006763;28;20127;-67
2023/08/11 06:33:36;;;;;;;11.02;7.85;;;;;;;19.12;67.95;101786.19;5012064;28;20436;-67
2023/08/11 06:36:01;;;;;;;10.75;8.38;;;;;;;19.17;67.49;101798.56;5012583;28;20477;-67
2023/08/11 06:38:27;;;;;;;9.80;7.97;;;;;;;19.28;67.74;101806.69;5012443;28;20354;-67
2023/08/11 06:40:52;;;;;;;8.88;7.22;;;;;;;19.35;67.09;101801.59;5011590;28;20025;-67
2023/08/11 06:43:17;;;;;;;12.07;7.55;;;;;;;19.39;66.47;101804.66;5012732;28;20112;-70
2023/08/11 06:45:45;;;;;;;9.65;6.80;;;;;;;19.52;66.49;101818.09;5012338;28;20030;-69
2023/08/11 06:48:11;;;;;;;13.07;7.45;;;;;;;19.62;67.04;101814.44;5000053;28;20473;-68
2023/08/11 06:50:37;;;;;;;9.90;7.10;;;;;;;19.73;66.63;101809.56;5011687;28;20057;-69
2023/08/11 06:53:02;;;;;;;9.60;6.68;;;;;;;19.82;65.98;101811.47;5010073;28;20479;-67
2023/08/11 06:55:28;;;;;;;5.38;4.78;;;;;;;20.01;65.48;101813.59;5009372;28;20072;-67
2023/08/11 06:57:53;;;;;;;9.02;5.70;;;;;;;20.08;64.83;101811.25;5005923;28;20018;-66
2023/08/11 07:00:18;;;;;;;11.40;5.82;;;;;;;20.18;64.72;101814.00;5007633;28;20033;-66
2023/08/11 07:02:44;;;;;;;6.22;5.22;;;;;;;20.28;64.34;101815.91;5006941;28;20056;-66
2023/08/11 07:05:10;;;;;;;9.02;5.25;;;;;;;20.33;63.84;101813.88;5009393;28;20543;-67
2023/08/11 07:07:35;;;;;;;7.22;5.65;;;;;;;20.43;63.62;101812.09;5008068;28;20033;-67
2023/08/11 07:10:00;;;;;;;9.15;6.05;;;;;;;20.42;62.46;101821.69;5007142;28;20037;-66
2023/08/11 07:12:26;;;;;;;6.95;5.20;;;;;;;20.47;62.69;101818.81;5008447;28;20030;-67
2023/08/11 07:14:51;;;;;;;7.10;5.13;;;;;;;20.61;62.76;101813.38;5008474;28;20049;-66
2023/08/11 07:17:18;;;;;;;7.47;5.00;;;;;;;20.72;62.57;101815.81;5005425;28;20484;-66
2023/08/11 07:19:43;;;;;;;11.40;5.20;;;;;;;20.83;62.05;101819.38;5011630;28;20393;-67
2023/08/11 07:22:08;;;;;;;6.90;5.32;;;;;;;20.94;62.07;101818.06;5009540;28;20041;-66
2023/08/11 07:24:34;;;;;;;7.63;5.43;;;;;;;21.01;62.55;101814.91;5010388;28;20046;-67
2023/08/11 07:26:59;;;;;;;7.65;5.25;;;;;;;21.10;62.68;101821.56;5009975;28;20032;-65
2023/08/11 07:29:24;;;;;;;8.60;5.25;;;;;;;21.18;61.33;101822.88;4998426;28;20034;-66
2023/08/11 07:31:50;;;;;;;9.57;4.95;;;;;;;21.27;61.49;101821.94;5006578;28;20033;-66
2023/08/11 07:34:16;;;;;;;6.38;4.80;;;;;;;21.39;60.86;101823.50;5010275;28;20030;-66
2023/08/11 07:36:43;;;;;;;7.63;4.55;;;;;;;21.50;60.36;101822.22;5010218;28;20488;-66
2023/08/11 07:39:09;;;;;;;7.80;4.90;;;;;;;21.56;60.35;101821.84;5006129;28;20034;-66
2023/08/11 07:41:35;;;;;;;10.10;4.53;;;;;;;21.63;59.70;101815.81;5009578;28;20045;-66
2023/08/11 07:44:01;;;;;;;8.35;4.65;;;;;;;21.71;60.09;101814.31;5004176;28;20030;-66
2023/08/11 07:46:26;;;;;;;8.93;4.47;;;;;;;21.83;59.70;101823.16;5009171;28;20091;-66
2023/08/11 07:48:52;;;;;;;7.20;4.20;;;;;;;21.85;59.00;101822.84;5010343;28;20022;-66
2023/08/11 07:51:17;;;;;;;7.80;4.47;;;;;;;21.95;58.60;101832.00;5007266;28;20489;-67
2023/08/11 07:53:44;;;;;;;8.75;4.78;;;;;;;22.12;58.33;101830.63;4998819;28;20124;-67
2023/08/11 07:56:11;;;;;;;9.57;4.90;;;;;;;22.21;58.73;101832.47;5011105;28;20045;-67
2023/08/11 07:58:36;;;;;;;6.93;4.20;;;;;;;22.26;58.21;101832.38;5010157;28;20033;-67
2023/08/11 08:01:02;;;;;;;6.70;4.25;;;;;;;22.35;58.06;101835.34;5011340;28;20697;-67
2023/08/11 08:03:27;;;;;;;6.70;4.32;;;;;;;22.38;57.78;101828.25;5010358;28;20030;-68
2023/08/11 08:05:53;;;;;;;7.28;4.03;;;;;;;22.52;57.07;101837.63;5001261;28;20492;-68
2023/08/11 08:08:18;;;;;;;8.38;4.25;;;;;;;22.59;57.03;101834.38;5011940;28;20030;-68
2023/08/11 08:10:43;;;;;;;7.97;4.03;;;;;;;22.64;56.68;101835.13;5008272;28;20048;-67
2023/08/11 08:13:09;;;;;;;5.93;3.80;;;;;;;22.66;56.44;101827.16;5012233;28;20117;-69
2023/08/11 08:15:35;;;;;;;8.27;4.15;;;;;;;22.72;56.45;101827.91;5012200;28;20033;-68
2023/08/11 08:18:00;;;;;;;7.32;4.82;;;;;;;22.70;55.64;101825.38;5007544;28;20030;-67
2023/08/11 08:20:26;;;;;;;6.43;4.10;;;;;;;22.69;55.99;101818.06;5005785;28;20087;-70
2023/08/11 08:22:52;;;;;;;7.57;4.10;;;;;;;22.82;55.94;101822.03;5010814;28;20626;-70
2023/08/11 08:25:18;;;;;;;5.65;3.53;;;;;;;22.85;55.72;101814.94;5009614;28;20132;-70
2023/08/11 08:27:43;;;;;;;7.65;3.90;;;;;;;22.94;56.20;101819.56;5007681;28;20121;-70
2023/08/11 08:30:10;;;;;;;7.85;4.10;;;;;;;23.07;56.12;101817.91;5007529;28;20081;-69
2023/08/11 08:32:37;;;;;;;4.90;3.85;;;;;;;23.12;56.75;101826.31;5010534;28;20037;-68
2023/08/11 08:35:03;;;;;;;7.97;3.50;;;;;;;23.21;55.81;101824.41;5009743;28;20026;-66
2023/08/11 08:37:29;;;;;;;5.55;3.70;;;;;;;23.40;55.50;101824.28;5011509;28;20100;-66
2023/08/11 08:39:55;;;;;;;5.35;4.07;;;;;;;23.39;55.30;101830.28;5006150;28;20651;-67
2023/08/11 08:42:22;;;;;;;4.95;3.85;;;;;;;23.57;55.18;101832.13;5004576;28;20045;-66
2023/08/11 08:44:49;;;;;;;5.70;3.80;;;;;;;23.53;54.87;101831.91;5008076;28;20392;-69
2023/08/11 08:47:16;;;;;;;5.80;3.70;;;;;;;23.59;54.96;101821.31;5002686;28;20359;-67
2023/08/11 08:49:44;;;;;;;8.27;4.20;;;;;;;23.62;54.37;101822.66;5009490;28;20406;-69
2023/08/11 08:52:09;;;;;;;5.57;3.55;;;;;;;23.80;55.00;101826.56;5006239;28;20040;-67
2023/08/11 08:54:35;;;;;;;5.47;4.10;;;;;;;23.75;54.36;101822.69;5011623;28;20034;-67
2023/08/11 08:57:04;;;;;;;6.95;3.95;;;;;;;23.81;54.38;101826.22;5009579;28;20022;-67
2023/08/11 08:59:29;;;;;;;7.10;3.60;;;;;;;23.97;53.88;101821.03;5008677;28;20033;-68
2023/08/11 09:01:56;;;;;;;6.05;3.40;;;;;;;24.02;54.32;101815.25;5003929;28;20026;-67
2023/08/11 09:04:21;;;;;;;7.78;3.60;;;;;;;24.10;54.37;101822.16;4997478;28;20026;-67
2023/08/11 09:06:47;;;;;;;3.83;3.08;;;;;;;24.15;53.84;101820.00;5004065;28;20041;-67
2023/08/11 09:09:13;;;;;;;6.07;3.20;;;;;;;24.18;53.25;101818.53;5011442;28;20116;-69
2023/08/11 09:11:39;;;;;;;4.15;3.25;;;;;;;24.24;54.17;101825.75;5011534;28;20030;-68
2023/08/11 09:14:05;;;;;;;4.65;3.10;;;;;;;24.27;54.14;101824.28;5010904;28;20232;-68
2023/08/11 09:16:33;;;;;;;7.68;3.30;;;;;;;24.34;53.97;101825.50;5011263;28;20456;-68
2023/08/11 09:18:59;;;;;;;4.57;3.20;;;;;;;24.51;54.54;101823.97;5009706;28;20117;-68
2023/08/11 09:21:24;;;;;;;8.55;2.90;;;;;;;24.48;53.81;101817.78;5010483;28;20116;-68
2023/08/11 09:23:52;;;;;;;4.00;2.95;;;;;;;24.46;53.15;101820.09;5004247;28;20026;-69
2023/08/11 09:26:23;;;;;;;5.50;3.15;;;;;;;24.60;53.43;101817.19;5012806;28;20037;-69
2023/08/11 09:28:52;;;;;;;3.97;3.03;;;;;;;24.57;53.45;101820.69;5007609;28;20049;-68
2023/08/11 09:31:22;;;;;;;4.18;3.22;;;;;;;24.66;53.32;101815.88;5011377;28;20445;-69
2023/08/11 09:33:47;;;;;;;4.72;2.88;;;;;;;24.78;53.66;101812.44;5011048;28;20022;-68
2023/08/11 09:36:13;;;;;;;5.05;3.25;;;;;;;24.80;53.59;101812.09;5012247;28;20122;-68
2023/08/11 09:38:41;;;;;;;5.22;3.10;;;;;;;24.72;53.28;101814.59;5012821;28;20076;-68
2023/08/11 09:41:08;;;;;;;7.00;3.38;;;;;;;24.75;53.28;101813.06;5012925;28;20041;-68
2023/08/11 09:43:35;;;;;;;6.55;3.33;;;;;;;24.76;53.97;101813.91;5012184;28;20389;-68
2023/08/11 09:46:00;;;;;;;7.88;3.50;;;;;;;24.76;53.33;101813.91;5009160;28;20522;-68
2023/08/11 09:48:26;;;;;;;3.97;3.03;;;;;;;24.71;53.51;101810.06;5012542;28;20101;-68
2023/08/11 09:50:52;;;;;;;5.10;2.88;;;;;;;24.82;54.46;101807.78;5011953;28;20462;-68
2023/08/11 09:53:19;;;;;;;5.05;3.25;;;;;;;24.85;53.70;101806.28;5012339;28;20101;-68
2023/08/11 09:55:48;;;;;;;3.60;3.17;;;;;;;24.94;53.92;101810.00;5012660;28;20046;-68
2023/08/11 09:58:14;;;;;;;4.20;3.13;;;;;;;24.97;52.75;101798.00;5007526;28;20120;-68
2023/08/11 10:00:40;;;;;;;3.20;2.50;;;;;;;25.14;53.21;101809.44;4999502;28;20541;-66
2023/08/11 10:03:10;;;;;;;5.63;2.90;;;;;;;25.24;52.73;101808.31;5001190;28;20022;-71
2023/08/11 10:05:42;;;;;;;4.05;2.50;;;;;;;25.24;51.99;101801.78;5003074;28;20461;-71
2023/08/11 10:08:09;;;;;;;;;;;;;;;25.16;53.95;101807.13;5002384;28;20530;-72
2023/08/11 10:10:37;;;;;;;2.70;2.50;;;;;;;25.24;52.46;101816.00;5009479;28;20371;-72
2023/08/11 10:13:08;;;;;;;3.90;3.08;;;;;;;25.21;52.13;101811.81;5002415;28;20513;-74
2023/08/11 10:15:34;;;;;;;2.97;2.47;;;;;;;25.34;52.62;101807.16;5008013;28;20030;-68
2023/08/11 10:18:01;;;;;;;6.25;2.70;;;;;;;25.42;52.60;101801.47;5009447;28;20305;-68
2023/08/11 10:20:28;;;;;;;4.72;2.65;;;;;;;25.53;52.35;101802.00;5011146;28;20018;-68
2023/08/11 10:22:56;;;;;;;3.47;2.38;;;;;;;25.65;52.53;101805.03;5008817;28;20393;-68
2023/08/11 10:25:23;;;;;;;3.53;2.70;;;;;;;25.70;50.88;101790.69;4998388;28;20099;-68
2023/08/11 10:27:49;;;;;;;4.95;2.53;;;;;;;25.71;51.40;101803.72;5010725;28;20131;-67
2023/08/11 10:30:15;;;;;;;2.95;2.30;;;;;;;25.87;52.17;101806.94;5009580;28;20042;-68
2023/08/11 10:32:40;;;;;;;5.30;2.50;;;;;;;25.81;50.35;101799.72;4996133;28;20029;-68
2023/08/11 10:35:07;;;;;;;3.35;2.40;;;;;;;25.89;50.60;101798.06;4999332;28;20037;-68
2023/08/11 10:37:33;;;;;;;4.22;2.80;;;;;;;25.88;50.17;101802.09;5006662;28;20030;-68
2023/08/11 10:40:16;;;;;;;3.83;2.50;;;;;;;25.93;51.85;101807.59;4992664;28;20045;-67
2023/08/11 10:42:42;;;;;;;3.90;2.40;;;;;;;25.97;50.42;101793.53;5002319;28;20049;-67
2023/08/11 10:45:12;;;;;;;6.43;2.40;;;;;;;25.98;49.76;101796.06;5008194;28;20469;-67
2023/08/11 10:47:43;;;;;;;3.80;2.65;;;;;;;26.00;49.60;101790.03;5006203;28;20026;-72
2023/08/11 10:50:09;;;;;;;2.77;2.40;;;;;;;26.10;49.62;101806.78;4997711;28;20046;-68
2023/08/11 10:52:35;;;;;;;3.60;2.30;;;;;;;26.10;49.35;101803.94;4998527;28;20042;-67
2023/08/11 10:55:04;;;;;;;3.75;2.40;;;;;;;26.14;49.73;101802.91;4994878;28;20034;-68
2023/08/11 10:57:31;;;;;;;3.85;2.40;;;;;;;26.18;49.21;101801.06;4999740;28;20418;-69
2023/08/11 10:59:56;;;;;;;2.85;2.20;;;;;;;26.25;50.66;101796.84;5003942;28;20444;-70
2023/08/11 11:02:21;;;;;;;3.10;2.50;;;;;;;26.27;49.31;101791.69;5004510;28;20022;-71
2023/08/11 11:04:47;;;;;;;3.42;2.20;;;;;;;26.38;49.25;101793.00;4993104;28;20048;-72
2023/08/11 11:07:14;;;;;;;2.72;2.20;;;;;;;26.34;49.15;101790.00;5007698;28;20026;-70
2023/08/11 11:09:40;;;;;;;5.05;2.30;;;;;;;26.40;49.09;101800.00;5009412;28;20022;-71
2023/08/11 11:12:06;;;;;;;3.25;2.10;;;;;;;26.42;49.11;101794.84;5010728;28;20109;-69
2023/08/11 11:14:31;;;;;;;5.45;2.60;;;;;;;26.46;48.75;101802.72;5010782;28;20133;-71
2023/08/11 11:16:59;;;;;;;3.08;2.20;;;;;;;26.53;49.26;101794.50;5007768;28;20029;-72